sensor_id;sensor_type;location;lat;lon;timestamp;pressure;altitude;pressure_sealevel;temperature;humidity
17260;BME280;8746;49.230;9.220;2024-02-14T00:00:02;100331.81;;;2.33;100.00
17260;BME280;8746;49.230;9.220;2024-02-14T00:02:27;100337.00;;;2.33;100.00
17260;BME280;8746;49.230;9.220;2024-02-14T00:04:53;100336.16;;;2.34;100.00
17260;BME280;8746;49.230;9.220;2024-02-14T00:07:19;100335.28;;;2.32;100.00
17260;BME280;8746;49.230;9.220;2024-02-14T00:09:45;100337.03;;;2.30;100.00
17260;BME280;8746;49.230;9.220;2024-02-14T00:12:10;100337.00;;;2.29;100.00
17260;BME280;8746;49.230;9.220;2024-02-14T00:14:36;100330.94;;;2.33;100.00
17260;BME280;8746;49.230;9.220;2024-02-14T00:17:03;100337.91;;;2.34;100.00
17260;BME280;8746;49.230;9.220;2024-02-14T00:19:28;100340.50;;;2.28;100.00
17260;BME280;8746;49.230;9.220;2024-02-14T00:21:54;100334.41;;;2.29;100.00
17260;BME280;8746;49.230;9.220;2024-02-14T00:24:19;100342.22;;;2.27;100.00
17260;BME280;8746;49.230;9.220;2024-02-14T00:26:44;100344.81;;;2.19;100.00
17260;BME280;8746;49.230;9.220;2024-02-14T00:29:11;100340.47;;;2.20;100.00
17260;BME280;8746;49.230;9.220;2024-02-14T00:31:36;100344.81;;;2.10;100.00
17260;BME280;8746;49.230;9.220;2024-02-14T00:34:02;100344.81;;;2.07;100.00
17260;BME280;8746;49.230;9.220;2024-02-14T00:36:27;100344.81;;;2.01;100.00
17260;BME280;8746;49.230;9.220;2024-02-14T00:38:52;100355.22;;;2.05;100.00
17260;BME280;8746;49.230;9.220;2024-02-14T00:41:18;100352.63;;;2.04;100.00
17260;BME280;8746;49.230;9.220;2024-02-14T00:43:43;100350.88;;;2.01;100.00
17260;BME280;8746;49.230;9.220;2024-02-14T00:46:09;100347.41;;;2.01;100.00
17260;BME280;8746;49.230;9.220;2024-02-14T00:48:34;100342.19;;;1.98;100.00
17260;BME280;8746;49.230;9.220;2024-02-14T00:50:59;100344.81;;;1.95;100.00
17260;BME280;8746;49.230;9.220;2024-02-14T00:53:25;100346.53;;;1.97;100.00
17260;BME280;8746;49.230;9.220;2024-02-14T00:55:50;100344.78;;;1.91;100.00
17260;BME280;8746;49.230;9.220;2024-02-14T00:58:17;100344.78;;;1.81;100.00
17260;BME280;8746;49.230;9.220;2024-02-14T01:00:42;100330.03;;;1.86;100.00
17260;BME280;8746;49.230;9.220;2024-02-14T01:03:08;100342.19;;;1.84;100.00
17260;BME280;8746;49.230;9.220;2024-02-14T01:05:37;100341.31;;;1.89;100.00
17260;BME280;8746;49.230;9.220;2024-02-14T01:08:03;100340.44;;;1.92;100.00
17260;BME280;8746;49.230;9.220;2024-02-14T01:10:28;100347.41;;;1.98;100.00
17260;BME280;8746;49.230;9.220;2024-02-14T01:12:54;100354.34;;;1.99;100.00
17260;BME280;8746;49.230;9.220;2024-02-14T01:15:19;100342.19;;;2.05;100.00
17260;BME280;8746;49.230;9.220;2024-02-14T01:17:47;100346.56;;;2.11;100.00
17260;BME280;8746;49.230;9.220;2024-02-14T01:20:12;100347.44;;;2.07;100.00
17260;BME280;8746;49.230;9.220;2024-02-14T01:22:38;100350.88;;;2.07;100.00
17260;BME280;8746;49.230;9.220;2024-02-14T01:25:03;100346.56;;;2.16;100.00
17260;BME280;8746;49.230;9.220;2024-02-14T01:27:29;100343.97;;;2.20;100.00
17260;BME280;8746;49.230;9.220;2024-02-14T01:29:55;100341.34;;;2.25;100.00
17260;BME280;8746;49.230;9.220;2024-02-14T01:32:22;100338.75;;;2.25;100.00
17260;BME280;8746;49.230;9.220;2024-02-14T01:34:47;100339.63;;;2.33;100.00
17260;BME280;8746;49.230;9.220;2024-02-14T01:37:13;100339.63;;;2.36;100.00
17260;BME280;8746;49.230;9.220;2024-02-14T01:39:39;100332.66;;;2.38;100.00
17260;BME280;8746;49.230;9.220;2024-02-14T01:42:04;100336.13;;;2.40;100.00
17260;BME280;8746;49.230;9.220;2024-02-14T01:44:32;100334.41;;;2.46;100.00
17260;BME280;8746;49.230;9.220;2024-02-14T01:46:58;100333.53;;;2.45;100.00
17260;BME280;8746;49.230;9.220;2024-02-14T01:49:24;100324.84;;;2.48;100.00
17260;BME280;8746;49.230;9.220;2024-02-14T01:51:55;100316.19;;;2.49;100.00
17260;BME280;8746;49.230;9.220;2024-02-14T01:54:24;100328.31;;;2.56;100.00
17260;BME280;8746;49.230;9.220;2024-02-14T01:56:51;100325.75;;;2.44;100.00
17260;BME280;8746;49.230;9.220;2024-02-14T01:59:16;100323.13;;;2.44;100.00
17260;BME280;8746;49.230;9.220;2024-02-14T02:01:42;100318.78;;;2.36;100.00
17260;BME280;8746;49.230;9.220;2024-02-14T02:04:07;100311.84;;;2.24;100.00
17260;BME280;8746;49.230;9.220;2024-02-14T02:06:33;100324.88;;;2.23;100.00
17260;BME280;8746;49.230;9.220;2024-02-14T02:08:59;100323.16;;;2.31;100.00
17260;BME280;8746;49.230;9.220;2024-02-14T02:11:25;100317.94;;;2.33;100.00
17260;BME280;8746;49.230;9.220;2024-02-14T02:13:51;100307.53;;;2.37;100.00
17260;BME280;8746;49.230;9.220;2024-02-14T02:16:17;100304.03;;;2.48;100.00
17260;BME280;8746;49.230;9.220;2024-02-14T02:18:45;100301.41;;;2.54;100.00
17260;BME280;8746;49.230;9.220;2024-02-14T02:21:10;100290.94;;;2.68;100.00
17260;BME280;8746;49.230;9.220;2024-02-14T02:23:38;100298.78;;;2.60;100.00
17260;BME280;8746;49.230;9.220;2024-02-14T02:26:03;100290.97;;;2.60;100.00
17260;BME280;8746;49.230;9.220;2024-02-14T02:28:29;100290.13;;;2.53;100.00
17260;BME280;8746;49.230;9.220;2024-02-14T02:30:54;100292.72;;;2.56;100.00
17260;BME280;8746;49.230;9.220;2024-02-14T02:33:21;100299.69;;;2.44;100.00
17260;BME280;8746;49.230;9.220;2024-02-14T02:35:47;100288.41;;;2.51;100.00
17260;BME280;8746;49.230;9.220;2024-02-14T02:38:13;100279.72;;;2.49;100.00
17260;BME280;8746;49.230;9.220;2024-02-14T02:40:38;100287.53;;;2.44;100.00
17260;BME280;8746;49.230;9.220;2024-02-14T02:43:04;100291.88;;;2.47;100.00
17260;BME280;8746;49.230;9.220;2024-02-14T02:45:30;100284.94;;;2.53;100.00
17260;BME280;8746;49.230;9.220;2024-02-14T02:47:56;100282.31;;;2.50;100.00
17260;BME280;8746;49.230;9.220;2024-02-14T02:50:21;100281.44;;;2.62;100.00
17260;BME280;8746;49.230;9.220;2024-02-14T02:52:47;100271.88;;;2.66;100.00
17260;BME280;8746;49.230;9.220;2024-02-14T02:55:13;100270.13;;;2.69;100.00
17260;BME280;8746;49.230;9.220;2024-02-14T02:57:41;100273.59;;;2.73;100.00
17260;BME280;8746;49.230;9.220;2024-02-14T03:00:06;100272.75;;;2.63;100.00
17260;BME280;8746;49.230;9.220;2024-02-14T03:02:36;100271.88;;;2.63;100.00
17260;BME280;8746;49.230;9.220;2024-02-14T03:05:05;100265.75;;;2.71;100.00
17260;BME280;8746;49.230;9.220;2024-02-14T03:07:36;100264.06;;;2.70;100.00
17260;BME280;8746;49.230;9.220;2024-02-14T03:10:03;100272.72;;;2.72;100.00
17260;BME280;8746;49.230;9.220;2024-02-14T03:12:29;100275.31;;;2.80;100.00
17260;BME280;8746;49.230;9.220;2024-02-14T03:14:56;100271.81;;;2.83;100.00
17260;BME280;8746;49.230;9.220;2024-02-14T03:17:22;100257.94;;;2.84;100.00
17260;BME280;8746;49.230;9.220;2024-02-14T03:19:47;100272.66;;;2.89;100.00
17260;BME280;8746;49.230;9.220;2024-02-14T03:22:13;100273.50;;;2.93;100.00
17260;BME280;8746;49.230;9.220;2024-02-14T03:24:39;100274.38;;;2.95;100.00
17260;BME280;8746;49.230;9.220;2024-02-14T03:27:04;100274.38;;;2.92;100.00
17260;BME280;8746;49.230;9.220;2024-02-14T03:29:30;100285.69;;;2.89;100.00
17260;BME280;8746;49.230;9.220;2024-02-14T03:31:55;100282.22;;;2.86;100.00
17260;BME280;8746;49.230;9.220;2024-02-14T03:34:24;100279.66;;;2.83;100.00
17260;BME280;8746;49.230;9.220;2024-02-14T03:36:50;100280.50;;;2.82;100.00
17260;BME280;8746;49.230;9.220;2024-02-14T03:39:15;100280.47;;;2.85;100.00
17260;BME280;8746;49.230;9.220;2024-02-14T03:41:42;100278.75;;;2.82;100.00
17260;BME280;8746;49.230;9.220;2024-02-14T03:44:07;100272.66;;;2.89;100.00
17260;BME280;8746;49.230;9.220;2024-02-14T03:46:34;100281.31;;;2.95;100.00
17260;BME280;8746;49.230;9.220;2024-02-14T03:49:00;100283.94;;;2.96;100.00
17260;BME280;8746;49.230;9.220;2024-02-14T03:51:26;100285.66;;;3.03;100.00
17260;BME280;8746;49.230;9.220;2024-02-14T03:53:51;100286.53;;;3.02;100.00
17260;BME280;8746;49.230;9.220;2024-02-14T03:56:16;100280.44;;;3.02;100.00
17260;BME280;8746;49.230;9.220;2024-02-14T03:58:42;100281.31;;;3.02;100.00
17260;BME280;8746;49.230;9.220;2024-02-14T04:01:08;100291.75;;;3.02;100.00
17260;BME280;8746;49.230;9.220;2024-02-14T04:03:34;100297.81;;;2.98;100.00
17260;BME280;8746;49.230;9.220;2024-02-14T04:05:59;100294.34;;;3.02;100.00
17260;BME280;8746;49.230;9.220;2024-02-14T04:08:24;100286.50;;;3.09;100.00
17260;BME280;8746;49.230;9.220;2024-02-14T04:10:50;100300.41;;;3.08;100.00
17260;BME280;8746;49.230;9.220;2024-02-14T04:13:16;100293.44;;;3.10;100.00
17260;BME280;8746;49.230;9.220;2024-02-14T04:15:41;100300.38;;;3.11;100.00
17260;BME280;8746;49.230;9.220;2024-02-14T04:18:10;100296.91;;;3.10;100.00
17260;BME280;8746;49.230;9.220;2024-02-14T04:20:36;100304.72;;;3.10;100.00
17260;BME280;8746;49.230;9.220;2024-02-14T04:23:01;100309.06;;;3.16;100.00
17260;BME280;8746;49.230;9.220;2024-02-14T04:25:26;100298.63;;;3.17;100.00
17260;BME280;8746;49.230;9.220;2024-02-14T04:27:52;100299.47;;;3.21;100.00
17260;BME280;8746;49.230;9.220;2024-02-14T04:30:17;100296.84;;;3.24;100.00
17260;BME280;8746;49.230;9.220;2024-02-14T04:32:42;100299.44;;;3.27;100.00
17260;BME280;8746;49.230;9.220;2024-02-14T04:35:09;100311.63;;;3.28;100.00
17260;BME280;8746;49.230;9.220;2024-02-14T04:37:34;100302.91;;;3.28;100.00
17260;BME280;8746;49.230;9.220;2024-02-14T04:39:59;100300.28;;;3.32;100.00
17260;BME280;8746;49.230;9.220;2024-02-14T04:42:25;100308.13;;;3.35;100.00
17260;BME280;8746;49.230;9.220;2024-02-14T04:44:50;100304.69;;;3.26;100.00
17260;BME280;8746;49.230;9.220;2024-02-14T04:47:15;100295.16;;;3.14;100.00
17260;BME280;8746;49.230;9.220;2024-02-14T04:49:41;100301.22;;;3.14;100.00
17260;BME280;8746;49.230;9.220;2024-02-14T04:52:06;100303.81;;;3.22;100.00
17260;BME280;8746;49.230;9.220;2024-02-14T04:54:33;100296.00;;;3.24;100.00
17260;BME280;8746;49.230;9.220;2024-02-14T04:56:58;100300.28;;;3.32;100.00
17260;BME280;8746;49.230;9.220;2024-02-14T04:59:24;100295.06;;;3.37;100.00
17260;BME280;8746;49.230;9.220;2024-02-14T05:01:49;100289.78;;;3.49;100.00
17260;BME280;8746;49.230;9.220;2024-02-14T05:04:15;100295.03;;;3.46;100.00
17260;BME280;8746;49.230;9.220;2024-02-14T05:06:41;100298.47;;;3.50;100.00
17260;BME280;8746;49.230;9.220;2024-02-14T05:09:07;100310.59;;;3.57;100.00
17260;BME280;8746;49.230;9.220;2024-02-14T05:11:36;100307.97;;;3.62;100.00
17260;BME280;8746;49.230;9.220;2024-02-14T05:14:02;100312.31;;;3.63;100.00
17260;BME280;8746;49.230;9.220;2024-02-14T05:16:27;100316.66;;;3.64;100.00
17260;BME280;8746;49.230;9.220;2024-02-14T05:18:52;100308.81;;;3.64;100.00
17260;BME280;8746;49.230;9.220;2024-02-14T05:21:20;100307.91;;;3.71;100.00
17260;BME280;8746;49.230;9.220;2024-02-14T05:23:45;100308.78;;;3.70;100.00
17260;BME280;8746;49.230;9.220;2024-02-14T05:26:10;100293.16;;;3.65;100.00
17260;BME280;8746;49.230;9.220;2024-02-14T05:28:36;100294.03;;;3.64;100.00
17260;BME280;8746;49.230;9.220;2024-02-14T05:31:02;100307.09;;;3.58;100.00
17260;BME280;8746;49.230;9.220;2024-02-14T05:33:28;100297.63;;;3.48;100.00
17260;BME280;8746;49.230;9.220;2024-02-14T05:35:53;100293.22;;;3.53;100.00
17260;BME280;8746;49.230;9.220;2024-02-14T05:38:19;100288.06;;;3.50;100.00
17260;BME280;8746;49.230;9.220;2024-02-14T05:40:48;100295.81;;;3.58;100.00
17260;BME280;8746;49.230;9.220;2024-02-14T05:43:14;100299.25;;;3.64;100.00
17260;BME280;8746;49.230;9.220;2024-02-14T05:45:40;100298.34;;;3.72;100.00
17260;BME280;8746;49.230;9.220;2024-02-14T05:48:06;100296.59;;;3.74;100.00
17260;BME280;8746;49.230;9.220;2024-02-14T05:50:31;100297.44;;;3.77;100.00
17260;BME280;8746;49.230;9.220;2024-02-14T05:52:57;100299.09;;;3.88;100.00
17260;BME280;8746;49.230;9.220;2024-02-14T05:55:23;100292.13;;;3.90;100.00
17260;BME280;8746;49.230;9.220;2024-02-14T05:57:53;100293.88;;;3.91;100.00
17260;BME280;8746;49.230;9.220;2024-02-14T06:00:21;100294.72;;;3.91;100.00
17260;BME280;8746;49.230;9.220;2024-02-14T06:02:47;100291.16;;;4.00;100.00
17260;BME280;8746;49.230;9.220;2024-02-14T06:05:13;100285.94;;;4.03;100.00
17260;BME280;8746;49.230;9.220;2024-02-14T06:07:39;100288.56;;;4.01;100.00
17260;BME280;8746;49.230;9.220;2024-02-14T06:10:06;100285.91;;;4.05;100.00
17260;BME280;8746;49.230;9.220;2024-02-14T06:12:32;100285.03;;;4.07;100.00
17260;BME280;8746;49.230;9.220;2024-02-14T06:14:57;100285.91;;;4.08;100.00
17260;BME280;8746;49.230;9.220;2024-02-14T06:17:22;100277.16;;;4.12;100.00
17260;BME280;8746;49.230;9.220;2024-02-14T06:19:48;100282.38;;;4.12;100.00
17260;BME280;8746;49.230;9.220;2024-02-14T06:22:13;100293.56;;;4.28;100.00
17260;BME280;8746;49.230;9.220;2024-02-14T06:24:38;100297.03;;;4.27;100.00
17260;BME280;8746;49.230;9.220;2024-02-14T06:27:04;100307.50;;;4.27;100.00
17260;BME280;8746;49.230;9.220;2024-02-14T06:29:29;100312.72;;;4.28;100.00
17260;BME280;8746;49.230;9.220;2024-02-14T06:31:55;100320.50;;;4.35;100.00
17260;BME280;8746;49.230;9.220;2024-02-14T06:34:20;100317.94;;;4.30;100.00
17260;BME280;8746;49.230;9.220;2024-02-14T06:36:48;100323.91;;;4.43;100.00
17260;BME280;8746;49.230;9.220;2024-02-14T06:39:14;100317.91;;;4.31;100.00
17260;BME280;8746;49.230;9.220;2024-02-14T06:41:39;100325.84;;;4.22;100.00
17260;BME280;8746;49.230;9.220;2024-02-14T06:44:05;100329.34;;;4.18;100.00
17260;BME280;8746;49.230;9.220;2024-02-14T06:46:30;100341.41;;;4.31;100.00
17260;BME280;8746;49.230;9.220;2024-02-14T06:48:56;100334.56;;;4.21;100.00
17260;BME280;8746;49.230;9.220;2024-02-14T06:51:22;100335.38;;;4.25;100.00
17260;BME280;8746;49.230;9.220;2024-02-14T06:53:49;100330.13;;;4.29;100.00
17260;BME280;8746;49.230;9.220;2024-02-14T06:56:15;100328.41;;;4.25;100.00
17260;BME280;8746;49.230;9.220;2024-02-14T06:58:40;100335.31;;;4.32;100.00
17260;BME280;8746;49.230;9.220;2024-02-14T07:01:05;100337.00;;;4.37;100.00
17260;BME280;8746;49.230;9.220;2024-02-14T07:03:31;100336.09;;;4.42;100.00
17260;BME280;8746;49.230;9.220;2024-02-14T07:05:56;100347.41;;;4.46;100.00
17260;BME280;8746;49.230;9.220;2024-02-14T07:08:22;100349.94;;;4.52;100.00
17260;BME280;8746;49.230;9.220;2024-02-14T07:10:48;100345.56;;;4.56;100.00
17260;BME280;8746;49.230;9.220;2024-02-14T07:13:14;100349.03;;;4.58;100.00
17260;BME280;8746;49.230;9.220;2024-02-14T07:15:39;100351.66;;;4.56;100.00
17260;BME280;8746;49.230;9.220;2024-02-14T07:18:04;100351.56;;;4.65;100.00
17260;BME280;8746;49.230;9.220;2024-02-14T07:20:30;100358.56;;;4.62;100.00
17260;BME280;8746;49.230;9.220;2024-02-14T07:22:56;100361.13;;;4.71;100.00
17260;BME280;8746;49.230;9.220;2024-02-14T07:25:22;100349.72;;;4.78;100.00
17260;BME280;8746;49.230;9.220;2024-02-14T07:27:47;100347.00;;;4.88;100.00
17260;BME280;8746;49.230;9.220;2024-02-14T07:30:15;100355.59;;;5.01;100.00
17260;BME280;8746;49.230;9.220;2024-02-14T07:32:40;100360.72;;;5.11;100.00
17260;BME280;8746;49.230;9.220;2024-02-14T07:35:06;100358.84;;;5.20;100.00
17260;BME280;8746;49.230;9.220;2024-02-14T07:37:32;100343.81;;;5.39;100.00
17260;BME280;8746;49.230;9.220;2024-02-14T07:39:57;100361.16;;;5.48;100.00
17260;BME280;8746;49.230;9.220;2024-02-14T07:42:22;100365.50;;;5.49;100.00
17260;BME280;8746;49.230;9.220;2024-02-14T07:44:48;100367.16;;;5.56;100.00
17260;BME280;8746;49.230;9.220;2024-02-14T07:47:13;100377.72;;;5.46;100.00
17260;BME280;8746;49.230;9.220;2024-02-14T07:49:39;100371.47;;;5.58;100.00
17260;BME280;8746;49.230;9.220;2024-02-14T07:52:05;100386.16;;;5.70;100.00
17260;BME280;8746;49.230;9.220;2024-02-14T07:54:31;100378.38;;;5.66;100.00
17260;BME280;8746;49.230;9.220;2024-02-14T07:56:56;100386.16;;;5.72;100.00
17260;BME280;8746;49.230;9.220;2024-02-14T07:59:21;100382.47;;;5.85;100.00
17260;BME280;8746;49.230;9.220;2024-02-14T08:01:47;100376.22;;;5.96;100.00
17260;BME280;8746;49.230;9.220;2024-02-14T08:04:12;100370.88;;;6.05;100.00
17260;BME280;8746;49.230;9.220;2024-02-14T08:06:37;100372.53;;;6.12;100.00
17260;BME280;8746;49.230;9.220;2024-02-14T08:09:03;100373.38;;;6.13;100.00
17260;BME280;8746;49.230;9.220;2024-02-14T08:11:31;100363.69;;;6.19;100.00
17260;BME280;8746;49.230;9.220;2024-02-14T08:13:57;100358.25;;;6.32;100.00
17260;BME280;8746;49.230;9.220;2024-02-14T08:16:23;100366.03;;;6.35;100.00
17260;BME280;8746;49.230;9.220;2024-02-14T08:18:48;100374.72;;;6.38;100.00
17260;BME280;8746;49.230;9.220;2024-02-14T08:21:16;100371.19;;;6.43;100.00
17260;BME280;8746;49.230;9.220;2024-02-14T08:23:41;100380.53;;;6.57;100.00
17260;BME280;8746;49.230;9.220;2024-02-14T08:26:08;100376.25;;;6.52;100.00
17260;BME280;8746;49.230;9.220;2024-02-14T08:28:39;100366.47;;;6.62;100.00
17260;BME280;8746;49.230;9.220;2024-02-14T08:31:11;100370.81;;;6.64;100.00
17260;BME280;8746;49.230;9.220;2024-02-14T08:33:37;100363.75;;;6.68;100.00
17260;BME280;8746;49.230;9.220;2024-02-14T08:36:03;100369.00;;;6.68;100.00
17260;BME280;8746;49.230;9.220;2024-02-14T08:38:28;100369.81;;;6.73;100.00
17260;BME280;8746;49.230;9.220;2024-02-14T08:40:54;100369.81;;;6.73;100.00
17260;BME280;8746;49.230;9.220;2024-02-14T08:43:19;100381.22;;;6.70;100.00
17260;BME280;8746;49.230;9.220;2024-02-14T08:45:44;100387.16;;;6.80;100.00
17260;BME280;8746;49.230;9.220;2024-02-14T08:48:10;100384.69;;;6.71;100.00
17260;BME280;8746;49.230;9.220;2024-02-14T08:50:35;100389.09;;;6.69;100.00
17260;BME280;8746;49.230;9.220;2024-02-14T08:53:01;100388.00;;;6.81;100.00
17260;BME280;8746;49.230;9.220;2024-02-14T08:55:26;100386.13;;;6.89;100.00
17260;BME280;8746;49.230;9.220;2024-02-14T08:57:52;100383.66;;;6.80;100.00
17260;BME280;8746;49.230;9.220;2024-02-14T09:00:18;100380.28;;;6.73;100.00
17260;BME280;8746;49.230;9.220;2024-02-14T09:02:47;100389.78;;;6.79;100.00
17260;BME280;8746;49.230;9.220;2024-02-14T09:05:13;100383.50;;;6.87;100.00
17260;BME280;8746;49.230;9.220;2024-02-14T09:07:39;100385.03;;;7.01;100.00
17260;BME280;8746;49.230;9.220;2024-02-14T09:10:07;100385.66;;;7.14;100.00
17260;BME280;8746;49.230;9.220;2024-02-14T09:12:32;100382.09;;;7.18;100.00
17260;BME280;8746;49.230;9.220;2024-02-14T09:14:58;100378.53;;;7.20;100.00
17260;BME280;8746;49.230;9.220;2024-02-14T09:17:24;100383.72;;;7.24;100.00
17260;BME280;8746;49.230;9.220;2024-02-14T09:19:49;100388.88;;;7.30;100.00
17260;BME280;8746;49.230;9.220;2024-02-14T09:22:16;100389.59;;;7.38;100.00
17260;BME280;8746;49.230;9.220;2024-02-14T09:24:47;100382.84;;;7.67;100.00
17260;BME280;8746;49.230;9.220;2024-02-14T09:27:13;100379.88;;;7.84;100.00
17260;BME280;8746;49.230;9.220;2024-02-14T09:29:38;100378.03;;;7.88;100.00
17260;BME280;8746;49.230;9.220;2024-02-14T09:32:04;100378.72;;;7.96;100.00
17260;BME280;8746;49.230;9.220;2024-02-14T09:34:30;100379.44;;;8.04;100.00
17260;BME280;8746;49.230;9.220;2024-02-14T09:36:56;100379.44;;;8.04;100.00
17260;BME280;8746;49.230;9.220;2024-02-14T09:39:23;100377.50;;;8.12;100.00
17260;BME280;8746;49.230;9.220;2024-02-14T09:41:58;100382.44;;;8.26;98.11
17260;BME280;8746;49.230;9.220;2024-02-14T09:44:27;100371.56;;;8.40;97.49
17260;BME280;8746;49.230;9.220;2024-02-14T09:46:54;100374.06;;;8.48;96.20
17260;BME280;8746;49.230;9.220;2024-02-14T09:49:21;100376.69;;;8.48;97.19
17260;BME280;8746;49.230;9.220;2024-02-14T09:51:47;100372.88;;;8.60;94.93
17260;BME280;8746;49.230;9.220;2024-02-14T09:54:14;100373.53;;;8.68;93.95
17260;BME280;8746;49.230;9.220;2024-02-14T09:56:41;100374.38;;;8.70;94.01
17260;BME280;8746;49.230;9.220;2024-02-14T09:59:07;100376.81;;;8.78;96.18
17260;BME280;8746;49.230;9.220;2024-02-14T10:01:32;100375.78;;;8.84;95.12
17260;BME280;8746;49.230;9.220;2024-02-14T10:03:57;100378.16;;;8.94;95.39
17260;BME280;8746;49.230;9.220;2024-02-14T10:06:23;100381.00;;;8.85;95.57
17260;BME280;8746;49.230;9.220;2024-02-14T10:08:50;100385.38;;;8.86;94.21
17260;BME280;8746;49.230;9.220;2024-02-14T10:11:20;100385.72;;;9.07;95.55
17260;BME280;8746;49.230;9.220;2024-02-14T10:13:49;100372.44;;;9.11;93.63
17260;BME280;8746;49.230;9.220;2024-02-14T10:16:16;100374.13;;;9.12;94.39
17260;BME280;8746;49.230;9.220;2024-02-14T10:18:44;100381.53;;;9.31;93.42
17260;BME280;8746;49.230;9.220;2024-02-14T10:21:14;100371.47;;;9.45;92.74
17260;BME280;8746;49.230;9.220;2024-02-14T10:23:42;100379.31;;;9.16;91.49
17260;BME280;8746;49.230;9.220;2024-02-14T10:26:08;100379.09;;;9.25;92.71
17260;BME280;8746;49.230;9.220;2024-02-14T10:28:33;100390.91;;;9.41;92.78
17260;BME280;8746;49.230;9.220;2024-02-14T10:30:59;100380.56;;;9.65;91.27
17260;BME280;8746;49.230;9.220;2024-02-14T10:33:28;100381.00;;;9.79;91.25
17260;BME280;8746;49.230;9.220;2024-02-14T10:35:54;100386.34;;;9.78;89.94
17260;BME280;8746;49.230;9.220;2024-02-14T10:38:22;100389.09;;;9.73;90.50
17260;BME280;8746;49.230;9.220;2024-02-14T10:40:48;100386.06;;;9.87;89.61
17260;BME280;8746;49.230;9.220;2024-02-14T10:43:14;100390.91;;;9.71;90.21
17260;BME280;8746;49.230;9.220;2024-02-14T10:45:39;100387.47;;;9.69;90.96
17260;BME280;8746;49.230;9.220;2024-02-14T10:48:05;100389.72;;;9.52;91.61
17260;BME280;8746;49.230;9.220;2024-02-14T10:50:35;100391.41;;;9.84;91.42
17260;BME280;8746;49.230;9.220;2024-02-14T10:53:04;100387.41;;;9.71;90.91
17260;BME280;8746;49.230;9.220;2024-02-14T10:55:33;100400.19;;;9.55;92.52
17260;BME280;8746;49.230;9.220;2024-02-14T10:57:59;100402.69;;;9.59;92.57
17260;BME280;8746;49.230;9.220;2024-02-14T11:00:25;100390.31;;;9.61;93.60
17260;BME280;8746;49.230;9.220;2024-02-14T11:02:52;100394.97;;;9.52;94.48
17260;BME280;8746;49.230;9.220;2024-02-14T11:05:19;100406.94;;;9.63;94.08
17260;BME280;8746;49.230;9.220;2024-02-14T11:07:48;100409.50;;;9.67;100.00
17260;BME280;8746;49.230;9.220;2024-02-14T11:10:17;100412.50;;;9.84;100.00
17260;BME280;8746;49.230;9.220;2024-02-14T11:12:43;100411.84;;;9.76;94.79
17260;BME280;8746;49.230;9.220;2024-02-14T11:15:27;100402.03;;;9.81;100.00
17260;BME280;8746;49.230;9.220;2024-02-14T11:18:04;100394.94;;;9.83;98.82
17260;BME280;8746;49.230;9.220;2024-02-14T11:20:34;100394.13;;;10.11;100.00
17260;BME280;8746;49.230;9.220;2024-02-14T11:23:05;100405.69;;;10.07;100.00
17260;BME280;8746;49.230;9.220;2024-02-14T11:25:37;100399.31;;;9.84;100.00
17260;BME280;8746;49.230;9.220;2024-02-14T11:28:13;100410.00;;;9.79;100.00
17260;BME280;8746;49.230;9.220;2024-02-14T11:30:40;100406.16;;;9.60;100.00
17260;BME280;8746;49.230;9.220;2024-02-14T11:33:19;100410.88;;;9.49;100.00
17260;BME280;8746;49.230;9.220;2024-02-14T11:35:47;100406.41;;;9.52;100.00
17260;BME280;8746;49.230;9.220;2024-02-14T11:38:14;100416.16;;;9.49;100.00
17260;BME280;8746;49.230;9.220;2024-02-14T11:40:39;100412.50;;;9.53;100.00
17260;BME280;8746;49.230;9.220;2024-02-14T11:43:18;100412.25;;;9.62;100.00
17260;BME280;8746;49.230;9.220;2024-02-14T11:45:44;100413.88;;;9.68;100.00
17260;BME280;8746;49.230;9.220;2024-02-14T11:48:12;100409.81;;;9.86;100.00
17260;BME280;8746;49.230;9.220;2024-02-14T11:50:41;100403.31;;;10.26;100.00
17260;BME280;8746;49.230;9.220;2024-02-14T11:53:07;100409.66;;;10.20;100.00
17260;BME280;8746;49.230;9.220;2024-02-14T11:55:37;100404.72;;;10.09;100.00
17260;BME280;8746;49.230;9.220;2024-02-14T12:00:37;100406.09;;;10.21;100.00
17260;BME280;8746;49.230;9.220;2024-02-14T12:03:05;100401.91;;;10.44;100.00
17260;BME280;8746;49.230;9.220;2024-02-14T12:05:32;100404.63;;;10.68;100.00
17260;BME280;8746;49.230;9.220;2024-02-14T12:07:59;100399.41;;;10.93;100.00
17260;BME280;8746;49.230;9.220;2024-02-14T12:10:24;100400.03;;;10.74;100.00
17260;BME280;8746;49.230;9.220;2024-02-14T12:12:49;100400.13;;;10.71;100.00
17260;BME280;8746;49.230;9.220;2024-02-14T12:15:16;100399.41;;;10.39;100.00
17260;BME280;8746;49.230;9.220;2024-02-14T12:17:42;100398.34;;;10.45;100.00
17260;BME280;8746;49.230;9.220;2024-02-14T12:20:11;100394.00;;;10.71;100.00
17260;BME280;8746;49.230;9.220;2024-02-14T12:22:39;100386.00;;;10.99;100.00
17260;BME280;8746;49.230;9.220;2024-02-14T12:25:06;100373.44;;;11.06;100.00
17260;BME280;8746;49.230;9.220;2024-02-14T12:27:33;100368.94;;;11.10;100.00
17260;BME280;8746;49.230;9.220;2024-02-14T12:29:59;100369.41;;;11.21;100.00
17260;BME280;8746;49.230;9.220;2024-02-14T12:32:24;100366.75;;;11.21;100.00
17260;BME280;8746;49.230;9.220;2024-02-14T12:34:49;100365.34;;;11.11;100.00
17260;BME280;8746;49.230;9.220;2024-02-14T12:37:15;100367.19;;;11.09;100.00
17260;BME280;8746;49.230;9.220;2024-02-14T12:39:40;100370.75;;;11.07;100.00
17260;BME280;8746;49.230;9.220;2024-02-14T12:42:05;100363.06;;;11.25;100.00
17260;BME280;8746;49.230;9.220;2024-02-14T12:44:31;100357.78;;;11.25;100.00
17260;BME280;8746;49.230;9.220;2024-02-14T12:46:57;100357.06;;;10.96;100.00
17260;BME280;8746;49.230;9.220;2024-02-14T12:49:22;100355.22;;;10.98;100.00
17260;BME280;8746;49.230;9.220;2024-02-14T12:51:51;100362.88;;;11.06;100.00
17260;BME280;8746;49.230;9.220;2024-02-14T12:54:16;100365.41;;;11.09;100.00
17260;BME280;8746;49.230;9.220;2024-02-14T12:56:42;100363.75;;;11.06;100.00